sensor_id;sensor_type;location;lat;lon;timestamp;temperature;humidity
75786;DHT22;64402;44.708;37.644;2023-08-08T00:01:00;22.36;78.73
75786;DHT22;64402;44.708;37.644;2023-08-08T00:03:26;22.37;78.88
75786;DHT22;64402;44.708;37.644;2023-08-08T00:05:53;22.39;79.71
75786;DHT22;64402;44.708;37.644;2023-08-08T00:08:19;22.40;80.94
75786;DHT22;64402;44.708;37.644;2023-08-08T00:10:46;22.47;80.78
75786;DHT22;64402;44.708;37.644;2023-08-08T00:13:12;22.51;79.85
75786;DHT22;64402;44.708;37.644;2023-08-08T00:15:38;22.50;80.70
75786;DHT22;64402;44.708;37.644;2023-08-08T00:18:05;22.51;79.59
75786;DHT22;64402;44.708;37.644;2023-08-08T00:20:31;22.47;80.18
75786;DHT22;64402;44.708;37.644;2023-08-08T00:22:57;22.46;80.19
75786;DHT22;64402;44.708;37.644;2023-08-08T00:25:24;22.43;80.58
75786;DHT22;64402;44.708;37.644;2023-08-08T00:27:50;22.42;80.51
75786;DHT22;64402;44.708;37.644;2023-08-08T00:30:17;22.40;81.72
75786;DHT22;64402;44.708;37.644;2023-08-08T00:32:43;22.39;82.13
75786;DHT22;64402;44.708;37.644;2023-08-08T00:35:10;22.40;82.42
75786;DHT22;64402;44.708;37.644;2023-08-08T00:37:36;22.43;82.56
75786;DHT22;64402;44.708;37.644;2023-08-08T00:40:02;22.47;82.54
75786;DHT22;64402;44.708;37.644;2023-08-08T00:42:28;22.50;82.60
75786;DHT22;64402;44.708;37.644;2023-08-08T00:44:54;22.52;82.32
75786;DHT22;64402;44.708;37.644;2023-08-08T00:47:27;22.51;81.80
75786;DHT22;64402;44.708;37.644;2023-08-08T00:49:54;22.53;81.62
75786;DHT22;64402;44.708;37.644;2023-08-08T00:52:20;22.51;81.91
75786;DHT22;64402;44.708;37.644;2023-08-08T00:54:47;22.51;81.84
75786;DHT22;64402;44.708;37.644;2023-08-08T00:57:13;22.52;81.49
75786;DHT22;64402;44.708;37.644;2023-08-08T00:59:39;22.54;81.38
75786;DHT22;64402;44.708;37.644;2023-08-08T01:02:05;22.52;81.28
75786;DHT22;64402;44.708;37.644;2023-08-08T01:04:31;22.53;81.01
75786;DHT22;64402;44.708;37.644;2023-08-08T01:07:30;22.50;81.20
75786;DHT22;64402;44.708;37.644;2023-08-08T01:12:40;22.47;80.68
75786;DHT22;64402;44.708;37.644;2023-08-08T01:15:07;22.44;80.37
75786;DHT22;64402;44.708;37.644;2023-08-08T01:17:35;22.44;80.04
75786;DHT22;64402;44.708;37.644;2023-08-08T01:20:04;22.41;79.92
75786;DHT22;64402;44.708;37.644;2023-08-08T01:22:36;22.38;80.15
75786;DHT22;64402;44.708;37.644;2023-08-08T01:25:04;22.35;79.85
75786;DHT22;64402;44.708;37.644;2023-08-08T01:27:30;22.29;79.75
75786;DHT22;64402;44.708;37.644;2023-08-08T01:29:57;22.26;79.85
75786;DHT22;64402;44.708;37.644;2023-08-08T01:32:23;22.20;79.85
75786;DHT22;64402;44.708;37.644;2023-08-08T01:34:49;22.17;79.86
75786;DHT22;64402;44.708;37.644;2023-08-08T01:40:21;22.11;79.56
75786;DHT22;64402;44.708;37.644;2023-08-08T01:42:51;22.07;79.31
75786;DHT22;64402;44.708;37.644;2023-08-08T01:45:18;22.05;79.28
75786;DHT22;64402;44.708;37.644;2023-08-08T01:47:50;22.04;79.32
75786;DHT22;64402;44.708;37.644;2023-08-08T01:50:16;22.03;79.24
75786;DHT22;64402;44.708;37.644;2023-08-08T01:52:42;22.02;79.24
75786;DHT22;64402;44.708;37.644;2023-08-08T01:55:09;21.97;79.12
75786;DHT22;64402;44.708;37.644;2023-08-08T01:57:35;21.92;78.98
75786;DHT22;64402;44.708;37.644;2023-08-08T02:00:01;21.88;79.04
75786;DHT22;64402;44.708;37.644;2023-08-08T02:02:30;21.90;78.68
75786;DHT22;64402;44.708;37.644;2023-08-08T02:04:56;21.91;78.69
75786;DHT22;64402;44.708;37.644;2023-08-08T02:07:22;21.89;78.63
75786;DHT22;64402;44.708;37.644;2023-08-08T02:09:48;21.90;78.55
75786;DHT22;64402;44.708;37.644;2023-08-08T02:12:16;21.89;78.43
75786;DHT22;64402;44.708;37.644;2023-08-08T02:14:42;21.91;78.27
75786;DHT22;64402;44.708;37.644;2023-08-08T02:17:08;21.91;78.15
75786;DHT22;64402;44.708;37.644;2023-08-08T02:19:34;21.93;78.07
75786;DHT22;64402;44.708;37.644;2023-08-08T02:22:01;21.87;78.43
75786;DHT22;64402;44.708;37.644;2023-08-08T02:24:27;21.81;78.59
75786;DHT22;64402;44.708;37.644;2023-08-08T02:26:53;21.83;78.57
75786;DHT22;64402;44.708;37.644;2023-08-08T02:29:19;21.85;78.43
75786;DHT22;64402;44.708;37.644;2023-08-08T02:31:45;21.88;78.43
75786;DHT22;64402;44.708;37.644;2023-08-08T02:34:11;21.89;78.76
75786;DHT22;64402;44.708;37.644;2023-08-08T02:36:38;21.92;79.01
75786;DHT22;64402;44.708;37.644;2023-08-08T02:39:04;21.95;79.04
75786;DHT22;64402;44.708;37.644;2023-08-08T02:41:30;21.99;79.11
75786;DHT22;64402;44.708;37.644;2023-08-08T02:43:57;22.05;79.17
75786;DHT22;64402;44.708;37.644;2023-08-08T02:46:23;22.07;79.18
75786;DHT22;64402;44.708;37.644;2023-08-08T02:48:49;22.07;79.22
75786;DHT22;64402;44.708;37.644;2023-08-08T02:51:16;22.11;79.21
75786;DHT22;64402;44.708;37.644;2023-08-08T02:53:42;22.18;78.88
75786;DHT22;64402;44.708;37.644;2023-08-08T02:56:08;22.24;78.74
75786;DHT22;64402;44.708;37.644;2023-08-08T02:58:35;22.29;78.55
75786;DHT22;64402;44.708;37.644;2023-08-08T03:01:01;22.33;78.44
75786;DHT22;64402;44.708;37.644;2023-08-08T03:03:27;22.39;78.27
75786;DHT22;64402;44.708;37.644;2023-08-08T03:05:54;22.41;78.44
75786;DHT22;64402;44.708;37.644;2023-08-08T03:08:20;22.41;78.39
75786;DHT22;64402;44.708;37.644;2023-08-08T03:10:47;22.46;78.19
75786;DHT22;64402;44.708;37.644;2023-08-08T03:13:13;22.54;77.71
75786;DHT22;64402;44.708;37.644;2023-08-08T03:15:39;22.60;77.71
75786;DHT22;64402;44.708;37.644;2023-08-08T03:18:08;22.65;77.58
75786;DHT22;64402;44.708;37.644;2023-08-08T03:20:34;22.68;77.52
75786;DHT22;64402;44.708;37.644;2023-08-08T03:23:01;22.72;77.47
75786;DHT22;64402;44.708;37.644;2023-08-08T03:25:27;22.75;77.48
75786;DHT22;64402;44.708;37.644;2023-08-08T03:27:53;22.77;77.51
75786;DHT22;64402;44.708;37.644;2023-08-08T03:30:20;22.79;77.95
75786;DHT22;64402;44.708;37.644;2023-08-08T03:32:46;22.80;77.99
75786;DHT22;64402;44.708;37.644;2023-08-08T03:35:13;22.86;78.00
75786;DHT22;64402;44.708;37.644;2023-08-08T03:37:41;22.93;77.79
75786;DHT22;64402;44.708;37.644;2023-08-08T03:40:08;23.07;77.34
75786;DHT22;64402;44.708;37.644;2023-08-08T03:42:35;23.17;77.02
75786;DHT22;64402;44.708;37.644;2023-08-08T03:45:02;23.29;77.02
75786;DHT22;64402;44.708;37.644;2023-08-08T03:47:28;23.41;76.67
75786;DHT22;64402;44.708;37.644;2023-08-08T03:49:55;23.51;76.20
75786;DHT22;64402;44.708;37.644;2023-08-08T03:52:24;23.62;75.72
75786;DHT22;64402;44.708;37.644;2023-08-08T03:54:51;23.73;75.48
75786;DHT22;64402;44.708;37.644;2023-08-08T03:57:18;23.79;75.11
75786;DHT22;64402;44.708;37.644;2023-08-08T03:59:44;23.86;75.09
75786;DHT22;64402;44.708;37.644;2023-08-08T04:02:10;23.92;74.97
75786;DHT22;64402;44.708;37.644;2023-08-08T04:04:37;23.99;74.64
75786;DHT22;64402;44.708;37.644;2023-08-08T04:07:04;24.05;74.63
75786;DHT22;64402;44.708;37.644;2023-08-08T04:09:31;24.16;74.63
75786;DHT22;64402;44.708;37.644;2023-08-08T04:11:57;24.28;74.30
75786;DHT22;64402;44.708;37.644;2023-08-08T04:14:23;24.40;73.91
75786;DHT22;64402;44.708;37.644;2023-08-08T04:16:50;24.55;73.66
75786;DHT22;64402;44.708;37.644;2023-08-08T04:19:16;24.70;73.20
75786;DHT22;64402;44.708;37.644;2023-08-08T04:21:42;24.85;73.07
75786;DHT22;64402;44.708;37.644;2023-08-08T04:24:09;24.99;72.35
75786;DHT22;64402;44.708;37.644;2023-08-08T04:26:35;25.13;72.58
75786;DHT22;64402;44.708;37.644;2023-08-08T04:29:01;25.29;72.16
75786;DHT22;64402;44.708;37.644;2023-08-08T04:35:12;25.53;71.06
75786;DHT22;64402;44.708;37.644;2023-08-08T04:37:46;25.66;70.56
75786;DHT22;64402;44.708;37.644;2023-08-08T04:40:51;25.79;71.10
75786;DHT22;64402;44.708;37.644;2023-08-08T04:44:01;25.93;71.17
75786;DHT22;64402;44.708;37.644;2023-08-08T04:47:09;26.13;70.60
75786;DHT22;64402;44.708;37.644;2023-08-08T04:50:16;26.34;70.05
75786;DHT22;64402;44.708;37.644;2023-08-08T04:53:20;26.52;69.47
75786;DHT22;64402;44.708;37.644;2023-08-08T04:56:28;26.68;69.00
75786;DHT22;64402;44.708;37.644;2023-08-08T04:59:32;26.82;68.33
75786;DHT22;64402;44.708;37.644;2023-08-08T05:02:39;26.97;67.68
75786;DHT22;64402;44.708;37.644;2023-08-08T05:05:48;27.13;67.53
75786;DHT22;64402;44.708;37.644;2023-08-08T05:08:52;27.31;67.01
75786;DHT22;64402;44.708;37.644;2023-08-08T05:11:59;27.47;66.23
75786;DHT22;64402;44.708;37.644;2023-08-08T05:15:03;27.64;65.34
75786;DHT22;64402;44.708;37.644;2023-08-08T05:18:07;27.79;64.49
75786;DHT22;64402;44.708;37.644;2023-08-08T05:21:17;27.97;63.92
75786;DHT22;64402;44.708;37.644;2023-08-08T05:24:21;28.13;63.71
75786;DHT22;64402;44.708;37.644;2023-08-08T05:27:28;28.27;62.96
75786;DHT22;64402;44.708;37.644;2023-08-08T05:30:32;28.42;62.05
75786;DHT22;64402;44.708;37.644;2023-08-08T05:33:36;28.58;62.25
75786;DHT22;64402;44.708;37.644;2023-08-08T05:36:46;28.68;60.67
75786;DHT22;64402;44.708;37.644;2023-08-08T05:39:53;28.79;60.67
75786;DHT22;64402;44.708;37.644;2023-08-08T05:43:03;28.97;60.35
75786;DHT22;64402;44.708;37.644;2023-08-08T05:46:10;29.12;59.93
75786;DHT22;64402;44.708;37.644;2023-08-08T05:49:16;29.28;59.16
75786;DHT22;64402;44.708;37.644;2023-08-08T05:52:22;29.46;58.89
75786;DHT22;64402;44.708;37.644;2023-08-08T05:55:28;29.71;58.64
75786;DHT22;64402;44.708;37.644;2023-08-08T05:58:36;29.88;57.92
75786;DHT22;64402;44.708;37.644;2023-08-08T06:01:47;30.01;57.67
75786;DHT22;64402;44.708;37.644;2023-08-08T06:04:53;30.16;56.91
75786;DHT22;64402;44.708;37.644;2023-08-08T06:08:01;30.27;56.02
75786;DHT22;64402;44.708;37.644;2023-08-08T06:11:14;30.47;56.71
75786;DHT22;64402;44.708;37.644;2023-08-08T06:14:22;30.57;55.33
75786;DHT22;64402;44.708;37.644;2023-08-08T06:17:30;30.68;55.11
75786;DHT22;64402;44.708;37.644;2023-08-08T06:20:40;30.83;54.23
75786;DHT22;64402;44.708;37.644;2023-08-08T06:23:48;30.98;53.68
75786;DHT22;64402;44.708;37.644;2023-08-08T06:26:54;31.14;52.45
75786;DHT22;64402;44.708;37.644;2023-08-08T06:30:05;31.29;52.28
75786;DHT22;64402;44.708;37.644;2023-08-08T06:33:12;31.50;50.95
75786;DHT22;64402;44.708;37.644;2023-08-08T06:36:20;31.72;49.66
75786;DHT22;64402;44.708;37.644;2023-08-08T06:39:28;31.84;50.21
75786;DHT22;64402;44.708;37.644;2023-08-08T06:42:36;31.88;51.01
75786;DHT22;64402;44.708;37.644;2023-08-08T06:45:42;31.89;50.70
75786;DHT22;64402;44.708;37.644;2023-08-08T06:48:48;31.99;51.00
75786;DHT22;64402;44.708;37.644;2023-08-08T06:52:01;31.98;49.02
75786;DHT22;64402;44.708;37.644;2023-08-08T06:55:07;31.90;49.34
75786;DHT22;64402;44.708;37.644;2023-08-08T06:58:16;31.88;48.69
75786;DHT22;64402;44.708;37.644;2023-08-08T07:01:26;31.95;49.49
75786;DHT22;64402;44.708;37.644;2023-08-08T07:04:33;32.08;48.28
75786;DHT22;64402;44.708;37.644;2023-08-08T07:07:39;32.12;49.25
75786;DHT22;64402;44.708;37.644;2023-08-08T07:10:49;32.08;49.11
75786;DHT22;64402;44.708;37.644;2023-08-08T07:13:56;32.09;49.12
75786;DHT22;64402;44.708;37.644;2023-08-08T07:17:02;32.13;48.29
75786;DHT22;64402;44.708;37.644;2023-08-08T07:20:10;32.17;50.13
75786;DHT22;64402;44.708;37.644;2023-08-08T07:23:20;32.20;50.18
75786;DHT22;64402;44.708;37.644;2023-08-08T07:26:26;32.35;49.90
75786;DHT22;64402;44.708;37.644;2023-08-08T07:29:32;32.37;50.64
75786;DHT22;64402;44.708;37.644;2023-08-08T07:32:38;32.56;49.15
75786;DHT22;64402;44.708;37.644;2023-08-08T07:36:05;32.60;48.84
75786;DHT22;64402;44.708;37.644;2023-08-08T07:39:12;32.54;50.08
75786;DHT22;64402;44.708;37.644;2023-08-08T07:42:22;32.55;49.51
75786;DHT22;64402;44.708;37.644;2023-08-08T07:45:30;32.49;48.18
75786;DHT22;64402;44.708;37.644;2023-08-08T07:48:40;32.58;47.88
75786;DHT22;64402;44.708;37.644;2023-08-08T07:51:50;32.62;47.76
75786;DHT22;64402;44.708;37.644;2023-08-08T07:55:00;32.61;47.07
75786;DHT22;64402;44.708;37.644;2023-08-08T07:58:10;32.83;46.99
75786;DHT22;64402;44.708;37.644;2023-08-08T08:01:16;32.91;46.20
75786;DHT22;64402;44.708;37.644;2023-08-08T08:04:22;33.12;46.14
75786;DHT22;64402;44.708;37.644;2023-08-08T08:07:32;33.08;46.09
75786;DHT22;64402;44.708;37.644;2023-08-08T08:10:40;33.06;46.31
75786;DHT22;64402;44.708;37.644;2023-08-08T08:13:47;33.28;46.60
75786;DHT22;64402;44.708;37.644;2023-08-08T08:16:57;33.23;47.09
75786;DHT22;64402;44.708;37.644;2023-08-08T08:20:04;33.29;46.61
75786;DHT22;64402;44.708;37.644;2023-08-08T08:23:16;33.21;47.09
75786;DHT22;64402;44.708;37.644;2023-08-08T08:26:22;33.41;45.68
75786;DHT22;64402;44.708;37.644;2023-08-08T08:29:29;33.53;44.47
75786;DHT22;64402;44.708;37.644;2023-08-08T08:32:39;33.51;45.64
75786;DHT22;64402;44.708;37.644;2023-08-08T08:36:06;33.52;44.80
75786;DHT22;64402;44.708;37.644;2023-08-08T08:39:12;33.66;44.27
75786;DHT22;64402;44.708;37.644;2023-08-08T08:42:16;33.70;43.96
75786;DHT22;64402;44.708;37.644;2023-08-08T08:44:43;34.84;41.39
75786;DHT22;64402;44.708;37.644;2023-08-08T08:47:12;36.28;37.55
75786;DHT22;64402;44.708;37.644;2023-08-08T08:49:39;36.98;35.76
75786;DHT22;64402;44.708;37.644;2023-08-08T08:52:08;37.10;35.05
75786;DHT22;64402;44.708;37.644;2023-08-08T08:54:35;37.46;34.60
75786;DHT22;64402;44.708;37.644;2023-08-08T08:57:02;38.50;31.83
75786;DHT22;64402;44.708;37.644;2023-08-08T08:59:29;38.53;31.90
75786;DHT22;64402;44.708;37.644;2023-08-08T09:01:56;38.55;31.44
75786;DHT22;64402;44.708;37.644;2023-08-08T09:04:23;38.89;31.39
75786;DHT22;64402;44.708;37.644;2023-08-08T09:06:50;39.70;29.87
75786;DHT22;64402;44.708;37.644;2023-08-08T09:09:17;40.08;28.70
75786;DHT22;64402;44.708;37.644;2023-08-08T09:11:52;40.13;28.57
75786;DHT22;64402;44.708;37.644;2023-08-08T09:14:22;40.82;27.50
75786;DHT22;64402;44.708;37.644;2023-08-08T09:16:50;40.75;27.89
75786;DHT22;64402;44.708;37.644;2023-08-08T09:19:20;41.76;25.64
75786;DHT22;64402;44.708;37.644;2023-08-08T09:21:47;42.17;25.87
75786;DHT22;64402;44.708;37.644;2023-08-08T09:24:14;42.64;24.52
75786;DHT22;64402;44.708;37.644;2023-08-08T09:26:41;42.60;25.06
75786;DHT22;64402;44.708;37.644;2023-08-08T09:29:09;41.93;25.91
75786;DHT22;64402;44.708;37.644;2023-08-08T09:31:36;42.23;25.51
75786;DHT22;64402;44.708;37.644;2023-08-08T09:34:04;42.96;24.78
75786;DHT22;64402;44.708;37.644;2023-08-08T09:36:30;42.78;24.53
75786;DHT22;64402;44.708;37.644;2023-08-08T09:38:57;43.07;24.38
75786;DHT22;64402;44.708;37.644;2023-08-08T09:41:24;43.39;23.53
75786;DHT22;64402;44.708;37.644;2023-08-08T09:43:52;42.73;25.09
75786;DHT22;64402;44.708;37.644;2023-08-08T09:46:20;42.65;25.14
75786;DHT22;64402;44.708;37.644;2023-08-08T09:48:47;42.61;25.77
75786;DHT22;64402;44.708;37.644;2023-08-08T09:51:14;43.46;24.49
75786;DHT22;64402;44.708;37.644;2023-08-08T09:53:41;43.59;23.80
75786;DHT22;64402;44.708;37.644;2023-08-08T09:56:08;43.63;23.50
75786;DHT22;64402;44.708;37.644;2023-08-08T09:58:34;43.49;24.09
75786;DHT22;64402;44.708;37.644;2023-08-08T10:01:01;43.96;23.43
75786;DHT22;64402;44.708;37.644;2023-08-08T10:03:31;43.49;24.06
75786;DHT22;64402;44.708;37.644;2023-08-08T10:05:58;43.64;23.43
75786;DHT22;64402;44.708;37.644;2023-08-08T10:08:25;44.10;22.85
75786;DHT22;64402;44.708;37.644;2023-08-08T10:10:52;44.27;22.99
75786;DHT22;64402;44.708;37.644;2023-08-08T10:13:22;43.11;24.00
75786;DHT22;64402;44.708;37.644;2023-08-08T10:15:50;43.25;24.32
75786;DHT22;64402;44.708;37.644;2023-08-08T10:18:17;42.91;25.33
75786;DHT22;64402;44.708;37.644;2023-08-08T10:20:46;42.87;24.92
75786;DHT22;64402;44.708;37.644;2023-08-08T10:23:20;43.16;24.65
75786;DHT22;64402;44.708;37.644;2023-08-08T10:25:48;43.31;24.45
75786;DHT22;64402;44.708;37.644;2023-08-08T10:28:19;43.18;24.67
75786;DHT22;64402;44.708;37.644;2023-08-08T10:30:47;43.53;24.40
75786;DHT22;64402;44.708;37.644;2023-08-08T10:38:26;43.49;24.20
75786;DHT22;64402;44.708;37.644;2023-08-08T10:40:57;44.01;23.71
75786;DHT22;64402;44.708;37.644;2023-08-08T10:43:28;44.69;22.17
75786;DHT22;64402;44.708;37.644;2023-08-08T10:45:58;44.98;21.76
75786;DHT22;64402;44.708;37.644;2023-08-08T10:48:25;44.77;22.55
75786;DHT22;64402;44.708;37.644;2023-08-08T10:50:58;44.66;22.63
75786;DHT22;64402;44.708;37.644;2023-08-08T10:53:28;45.15;21.69
75786;DHT22;64402;44.708;37.644;2023-08-08T10:56:00;44.67;21.83
75786;DHT22;64402;44.708;37.644;2023-08-08T10:58:41;45.12;21.03
75786;DHT22;64402;44.708;37.644;2023-08-08T11:01:07;45.03;21.85
75786;DHT22;64402;44.708;37.644;2023-08-08T11:03:39;44.85;21.04
75786;DHT22;64402;44.708;37.644;2023-08-08T11:06:09;45.06;21.05
75786;DHT22;64402;44.708;37.644;2023-08-08T11:08:37;45.22;21.31
75786;DHT22;64402;44.708;37.644;2023-08-08T11:11:05;45.55;20.60
75786;DHT22;64402;44.708;37.644;2023-08-08T11:13:32;46.15;20.19
75786;DHT22;64402;44.708;37.644;2023-08-08T11:15:59;45.45;20.41
75786;DHT22;64402;44.708;37.644;2023-08-08T11:18:28;45.34;20.85
75786;DHT22;64402;44.708;37.644;2023-08-08T11:20:54;44.40;22.50
75786;DHT22;64402;44.708;37.644;2023-08-08T11:23:20;45.16;21.02
75786;DHT22;64402;44.708;37.644;2023-08-08T11:25:47;45.90;20.27
75786;DHT22;64402;44.708;37.644;2023-08-08T11:28:14;46.74;18.89
75786;DHT22;64402;44.708;37.644;2023-08-08T11:30:43;47.41;18.57
75786;DHT22;64402;44.708;37.644;2023-08-08T11:33:10;47.55;18.35
75786;DHT22;64402;44.708;37.644;2023-08-08T11:35:43;48.73;16.71
75786;DHT22;64402;44.708;37.644;2023-08-08T11:38:12;48.00;17.83
75786;DHT22;64402;44.708;37.644;2023-08-08T11:40:39;47.99;17.71
75786;DHT22;64402;44.708;37.644;2023-08-08T11:43:05;47.84;17.89
75786;DHT22;64402;44.708;37.644;2023-08-08T11:45:34;47.37;18.49
75786;DHT22;64402;44.708;37.644;2023-08-08T11:48:00;46.86;18.96
75786;DHT22;64402;44.708;37.644;2023-08-08T11:50:27;46.58;19.34
75786;DHT22;64402;44.708;37.644;2023-08-08T11:52:55;46.44;19.53
75786;DHT22;64402;44.708;37.644;2023-08-08T11:55:27;46.37;19.67
75786;DHT22;64402;44.708;37.644;2023-08-08T11:57:53;46.10;19.58
75786;DHT22;64402;44.708;37.644;2023-08-08T12:00:27;46.17;20.11
75786;DHT22;64402;44.708;37.644;2023-08-08T12:02:55;46.25;19.79
75786;DHT22;64402;44.708;37.644;2023-08-08T12:05:21;46.83;18.95
75786;DHT22;64402;44.708;37.644;2023-08-08T12:07:48;45.98;19.97
75786;DHT22;64402;44.708;37.644;2023-08-08T12:10:18;47.07;18.64
75786;DHT22;64402;44.708;37.644;2023-08-08T12:12:45;47.49;18.20
75786;DHT22;64402;44.708;37.644;2023-08-08T12:15:12;47.22;18.19
75786;DHT22;64402;44.708;37.644;2023-08-08T12:17:39;46.45;19.34
75786;DHT22;64402;44.708;37.644;2023-08-08T12:20:07;47.12;18.35
75786;DHT22;64402;44.708;37.644;2023-08-08T12:22:34;47.37;18.04
75786;DHT22;64402;44.708;37.644;2023-08-08T12:25:00;47.19;18.11
75786;DHT22;64402;44.708;37.644;2023-08-08T12:27:27;46.79;18.70
75786;DHT22;64402;44.708;37.644;2023-08-08T12:29:52;47.47;17.99
75786;DHT22;64402;44.708;37.644;2023-08-08T12:32:19;46.54;18.76
75786;DHT22;64402;44.708;37.644;2023-08-08T12:34:46;46.75;18.46
75786;DHT22;64402;44.708;37.644;2023-08-08T12:37:12;46.81;18.54
75786;DHT22;64402;44.708;37.644;2023-08-08T12:39:38;45.76;19.90
75786;DHT22;64402;44.708;37.644;2023-08-08T12:42:05;45.65;20.23
75786;DHT22;64402;44.708;37.644;2023-08-08T12:44:31;45.89;19.59
75786;DHT22;64402;44.708;37.644;2023-08-08T12:46:58;45.96;19.71
75786;DHT22;64402;44.708;37.644;2023-08-08T12:49:24;46.29;19.20
75786;DHT22;64402;44.708;37.644;2023-08-08T12:51:51;46.33;19.31
75786;DHT22;64402;44.708;37.644;2023-08-08T12:54:18;46.72;18.59
75786;DHT22;64402;44.708;37.644;2023-08-08T12:56:44;46.04;19.31
75786;DHT22;64402;44.708;37.644;2023-08-08T12:59:11;46.08;19.18
75786;DHT22;64402;44.708;37.644;2023-08-08T13:01:37;45.89;19.86
75786;DHT22;64402;44.708;37.644;2023-08-08T13:04:03;45.94;19.71
75786;DHT22;64402;44.708;37.644;2023-08-08T13:06:30;46.28;19.03
75786;DHT22;64402;44.708;37.644;2023-08-08T13:08:57;46.18;19.22
75786;DHT22;64402;44.708;37.644;2023-08-08T13:11:23;46.39;19.12
75786;DHT22;64402;44.708;37.644;2023-08-08T13:13:50;45.90;19.60
75786;DHT22;64402;44.708;37.644;2023-08-08T13:16:16;45.64;19.94
75786;DHT22;64402;44.708;37.644;2023-08-08T13:18:43;45.28;20.49
75786;DHT22;64402;44.708;37.644;2023-08-08T13:21:09;45.73;20.27
75786;DHT22;64402;44.708;37.644;2023-08-08T13:23:36;45.78;19.80
75786;DHT22;64402;44.708;37.644;2023-08-08T13:26:03;46.12;19.55
75786;DHT22;64402;44.708;37.644;2023-08-08T13:28:30;46.15;19.48
75786;DHT22;64402;44.708;37.644;2023-08-08T13:30:56;46.08;19.59
75786;DHT22;64402;44.708;37.644;2023-08-08T13:33:22;46.33;19.32
75786;DHT22;64402;44.708;37.644;2023-08-08T13:35:49;46.92;18.72
75786;DHT22;64402;44.708;37.644;2023-08-08T13:38:15;47.40;18.26
75786;DHT22;64402;44.708;37.644;2023-08-08T13:40:41;47.08;18.34
75786;DHT22;64402;44.708;37.644;2023-08-08T13:43:07;46.71;19.27
75786;DHT22;64402;44.708;37.644;2023-08-08T13:45:34;46.08;19.96
75786;DHT22;64402;44.708;37.644;2023-08-08T13:48:00;46.04;19.92
75786;DHT22;64402;44.708;37.644;2023-08-08T13:50:27;46.50;19.47
75786;DHT22;64402;44.708;37.644;2023-08-08T13:52:54;46.81;19.40
75786;DHT22;64402;44.708;37.644;2023-08-08T13:55:20;47.35;18.44
75786;DHT22;64402;44.708;37.644;2023-08-08T13:57:46;46.93;19.20
75786;DHT22;64402;44.708;37.644;2023-08-08T14:00:13;46.31;20.01
75786;DHT22;64402;44.708;37.644;2023-08-08T14:02:40;45.75;21.08
75786;DHT22;64402;44.708;37.644;2023-08-08T14:05:06;45.45;21.80
75786;DHT22;64402;44.708;37.644;2023-08-08T14:07:33;45.99;21.25
75786;DHT22;64402;44.708;37.644;2023-08-08T14:10:02;45.92;21.52
75786;DHT22;64402;44.708;37.644;2023-08-08T14:12:29;45.87;21.95
75786;DHT22;64402;44.708;37.644;2023-08-08T14:14:56;45.35;22.99
75786;DHT22;64402;44.708;37.644;2023-08-08T14:17:22;44.71;24.43
75786;DHT22;64402;44.708;37.644;2023-08-08T14:19:48;43.72;26.01
75786;DHT22;64402;44.708;37.644;2023-08-08T14:22:14;43.34;26.46
75786;DHT22;64402;44.708;37.644;2023-08-08T14:24:42;42.76;27.47
75786;DHT22;64402;44.708;37.644;2023-08-08T14:27:09;42.07;28.68
75786;DHT22;64402;44.708;37.644;2023-08-08T14:29:35;41.62;29.40
75786;DHT22;64402;44.708;37.644;2023-08-08T14:32:01;41.16;30.14
75786;DHT22;64402;44.708;37.644;2023-08-08T14:34:31;40.65;31.61
75786;DHT22;64402;44.708;37.644;2023-08-08T14:37:00;40.87;31.04
75786;DHT22;64402;44.708;37.644;2023-08-08T14:39:27;41.50;29.94
75786;DHT22;64402;44.708;37.644;2023-08-08T14:41:54;41.65;29.75
75786;DHT22;64402;44.708;37.644;2023-08-08T14:44:20;41.99;29.43
75786;DHT22;64402;44.708;37.644;2023-08-08T14:46:46;41.72;29.75
75786;DHT22;64402;44.708;37.644;2023-08-08T14:49:12;41.94;29.45
75786;DHT22;64402;44.708;37.644;2023-08-08T14:51:39;41.94;29.65
75786;DHT22;64402;44.708;37.644;2023-08-08T14:54:05;42.29;28.74
75786;DHT22;64402;44.708;37.644;2023-08-08T14:56:31;42.17;28.97
75786;DHT22;64402;44.708;37.644;2023-08-08T14:58:57;42.35;29.10
75786;DHT22;64402;44.708;37.644;2023-08-08T15:01:26;42.07;29.44
75786;DHT22;64402;44.708;37.644;2023-08-08T15:03:52;42.03;29.44
75786;DHT22;64402;44.708;37.644;2023-08-08T15:06:19;41.73;30.17
75786;DHT22;64402;44.708;37.644;2023-08-08T15:08:45;41.46;30.92
75786;DHT22;64402;44.708;37.644;2023-08-08T15:11:11;42.26;29.17
75786;DHT22;64402;44.708;37.644;2023-08-08T15:13:37;42.80;28.26
75786;DHT22;64402;44.708;37.644;2023-08-08T15:16:03;42.09;29.77
75786;DHT22;64402;44.708;37.644;2023-08-08T15:18:30;40.75;31.56
75786;DHT22;64402;44.708;37.644;2023-08-08T15:20:56;40.91;31.20
75786;DHT22;64402;44.708;37.644;2023-08-08T15:23:22;40.98;30.74
75786;DHT22;64402;44.708;37.644;2023-08-08T15:25:48;40.51;31.16
75786;DHT22;64402;44.708;37.644;2023-08-08T15:28:14;40.19;31.36
75786;DHT22;64402;44.708;37.644;2023-08-08T15:30:41;38.84;34.08
75786;DHT22;64402;44.708;37.644;2023-08-08T15:33:07;38.31;35.21
75786;DHT22;64402;44.708;37.644;2023-08-08T15:35:34;38.50;34.62
75786;DHT22;64402;44.708;37.644;2023-08-08T15:38:00;38.09;34.92
75786;DHT22;64402;44.708;37.644;2023-08-08T15:40:26;37.65;35.95
75786;DHT22;64402;44.708;37.644;2023-08-08T15:42:52;37.41;36.14
75786;DHT22;64402;44.708;37.644;2023-08-08T15:45:18;36.90;36.97
75786;DHT22;64402;44.708;37.644;2023-08-08T15:47:44;36.63;37.56
75786;DHT22;64402;44.708;37.644;2023-08-08T15:50:10;36.38;38.01
75786;DHT22;64402;44.708;37.644;2023-08-08T15:52:37;36.09;38.55
75786;DHT22;64402;44.708;37.644;2023-08-08T15:55:03;35.72;39.53
75786;DHT22;64402;44.708;37.644;2023-08-08T15:57:34;35.22;40.38
75786;DHT22;64402;44.708;37.644;2023-08-08T16:00:00;34.94;41.07
75786;DHT22;64402;44.708;37.644;2023-08-08T16:02:26;34.67;41.90
75786;DHT22;64402;44.708;37.644;2023-08-08T16:04:53;34.26;43.11
75786;DHT22;64402;44.708;37.644;2023-08-08T16:07:19;34.08;43.96
75786;DHT22;64402;44.708;37.644;2023-08-08T16:09:46;34.01;43.80
75786;DHT22;64402;44.708;37.644;2023-08-08T16:12:12;33.89;43.90
75786;DHT22;64402;44.708;37.644;2023-08-08T16:14:39;33.75;44.12
75786;DHT22;64402;44.708;37.644;2023-08-08T16:17:06;33.68;44.06
75786;DHT22;64402;44.708;37.644;2023-08-08T16:19:32;33.49;44.54
75786;DHT22;64402;44.708;37.644;2023-08-08T16:21:58;33.23;45.17